Rathbun, Iowa
Current Conditions -  °F | °C
As of 10:50 AM on Tuesday 27 Jan 2015 (Local Time) from KTVK Reporting Station
Clear Clear  
Wind Chill: 35°   Ceiling: Unl
Heat Index: 39°   Visibility: 10mi
Dew Point: 32°   Wind: 6mph
Humidity: 75%   Direction: 40°NE
Pressure: 30.18"   Gusts: NA
Location:  40.71°N, 92.9234°W
Report Text: KTVK 271650Z AUTO 04005KT 10SM CLR 04/00 A3018 RMK AO2
Loading
Personal Weather Stations






























Interactive Weather Map New forecast layout! Learn more

10-Day Weather Forecast

Advertisements
Track Severe Weather on mobile